sensor_id;sensor_type;location;lat;lon;timestamp;temperature;humidity
65046;DHT22;54657;52.022;5.534;2023-05-27T00:00:18;11.50;66.40
65046;DHT22;54657;52.022;5.534;2023-05-27T00:02:43;11.40;66.70
65046;DHT22;54657;52.022;5.534;2023-05-27T00:05:09;11.40;66.00
65046;DHT22;54657;52.022;5.534;2023-05-27T00:07:34;11.30;66.40
65046;DHT22;54657;52.022;5.534;2023-05-27T00:10:00;11.30;67.10
65046;DHT22;54657;52.022;5.534;2023-05-27T00:12:26;11.30;66.50
65046;DHT22;54657;52.022;5.534;2023-05-27T00:14:51;11.30;66.10
65046;DHT22;54657;52.022;5.534;2023-05-27T00:17:17;11.20;66.60
65046;DHT22;54657;52.022;5.534;2023-05-27T00:19:43;11.20;66.70
65046;DHT22;54657;52.022;5.534;2023-05-27T00:22:10;11.20;66.80
65046;DHT22;54657;52.022;5.534;2023-05-27T00:24:36;11.20;67.10
65046;DHT22;54657;52.022;5.534;2023-05-27T00:27:05;11.20;66.70
65046;DHT22;54657;52.022;5.534;2023-05-27T00:29:30;11.20;66.40
65046;DHT22;54657;52.022;5.534;2023-05-27T00:31:56;11.20;66.70
65046;DHT22;54657;52.022;5.534;2023-05-27T00:34:21;11.20;66.70
65046;DHT22;54657;52.022;5.534;2023-05-27T00:36:47;11.20;67.20
65046;DHT22;54657;52.022;5.534;2023-05-27T00:39:13;11.20;66.90
65046;DHT22;54657;52.022;5.534;2023-05-27T00:41:43;11.20;67.40
65046;DHT22;54657;52.022;5.534;2023-05-27T00:44:13;11.20;67.40
65046;DHT22;54657;52.022;5.534;2023-05-27T00:46:38;11.20;67.30
65046;DHT22;54657;52.022;5.534;2023-05-27T00:49:04;11.10;66.90
65046;DHT22;54657;52.022;5.534;2023-05-27T00:51:29;11.10;67.40
65046;DHT22;54657;52.022;5.534;2023-05-27T00:53:56;11.10;67.40
65046;DHT22;54657;52.022;5.534;2023-05-27T00:56:22;11.00;67.30
65046;DHT22;54657;52.022;5.534;2023-05-27T00:58:48;11.00;67.70
65046;DHT22;54657;52.022;5.534;2023-05-27T01:01:13;11.00;67.90
65046;DHT22;54657;52.022;5.534;2023-05-27T01:03:40;11.00;67.40
65046;DHT22;54657;52.022;5.534;2023-05-27T01:11:15;10.90;68.00
65046;DHT22;54657;52.022;5.534;2023-05-27T01:13:49;10.90;67.90
65046;DHT22;54657;52.022;5.534;2023-05-27T01:16:16;10.80;68.60
65046;DHT22;54657;52.022;5.534;2023-05-27T01:18:44;10.80;68.10
65046;DHT22;54657;52.022;5.534;2023-05-27T01:21:12;10.90;68.10
65046;DHT22;54657;52.022;5.534;2023-05-27T01:23:41;11.00;68.30
65046;DHT22;54657;52.022;5.534;2023-05-27T01:26:07;11.00;68.20
65046;DHT22;54657;52.022;5.534;2023-05-27T01:28:32;11.10;67.80
65046;DHT22;54657;52.022;5.534;2023-05-27T01:33:34;11.10;68.20
65046;DHT22;54657;52.022;5.534;2023-05-27T01:36:07;11.00;68.60
65046;DHT22;54657;52.022;5.534;2023-05-27T01:38:33;11.10;68.20
65046;DHT22;54657;52.022;5.534;2023-05-27T01:41:00;10.90;67.90
65046;DHT22;54657;52.022;5.534;2023-05-27T01:43:26;10.90;68.60
65046;DHT22;54657;52.022;5.534;2023-05-27T01:45:52;10.90;68.70
65046;DHT22;54657;52.022;5.534;2023-05-27T01:48:18;11.00;68.20
65046;DHT22;54657;52.022;5.534;2023-05-27T01:50:44;11.00;68.80
65046;DHT22;54657;52.022;5.534;2023-05-27T01:53:10;11.00;68.30
65046;DHT22;54657;52.022;5.534;2023-05-27T01:55:37;10.90;68.30
65046;DHT22;54657;52.022;5.534;2023-05-27T01:58:03;10.80;69.30
65046;DHT22;54657;52.022;5.534;2023-05-27T02:00:29;10.90;68.90
65046;DHT22;54657;52.022;5.534;2023-05-27T02:02:55;11.00;69.10
65046;DHT22;54657;52.022;5.534;2023-05-27T02:05:21;11.00;68.70
65046;DHT22;54657;52.022;5.534;2023-05-27T02:07:46;11.10;68.60
65046;DHT22;54657;52.022;5.534;2023-05-27T02:10:12;11.10;68.70
65046;DHT22;54657;52.022;5.534;2023-05-27T02:12:37;11.00;68.90
65046;DHT22;54657;52.022;5.534;2023-05-27T02:15:03;11.00;69.10
65046;DHT22;54657;52.022;5.534;2023-05-27T02:17:29;11.00;68.90
65046;DHT22;54657;52.022;5.534;2023-05-27T02:19:55;11.00;68.60
65046;DHT22;54657;52.022;5.534;2023-05-27T02:22:21;10.80;69.70
65046;DHT22;54657;52.022;5.534;2023-05-27T02:24:46;10.80;69.20
65046;DHT22;54657;52.022;5.534;2023-05-27T02:27:12;10.70;69.80
65046;DHT22;54657;52.022;5.534;2023-05-27T02:29:38;10.70;69.90
65046;DHT22;54657;52.022;5.534;2023-05-27T02:32:04;10.80;69.70
65046;DHT22;54657;52.022;5.534;2023-05-27T02:34:29;10.80;69.90
65046;DHT22;54657;52.022;5.534;2023-05-27T02:36:55;10.80;69.80
65046;DHT22;54657;52.022;5.534;2023-05-27T02:39:20;10.90;69.60
65046;DHT22;54657;52.022;5.534;2023-05-27T02:41:46;10.90;69.60
65046;DHT22;54657;52.022;5.534;2023-05-27T02:44:12;10.90;69.60
65046;DHT22;54657;52.022;5.534;2023-05-27T02:46:37;10.90;69.60
65046;DHT22;54657;52.022;5.534;2023-05-27T02:49:03;10.90;69.60
65046;DHT22;54657;52.022;5.534;2023-05-27T02:51:28;11.00;69.50
65046;DHT22;54657;52.022;5.534;2023-05-27T02:53:54;11.10;69.40
65046;DHT22;54657;52.022;5.534;2023-05-27T02:56:20;11.20;69.30
65046;DHT22;54657;52.022;5.534;2023-05-27T02:58:46;11.20;68.90
65046;DHT22;54657;52.022;5.534;2023-05-27T03:01:12;11.00;69.60
65046;DHT22;54657;52.022;5.534;2023-05-27T03:03:37;10.90;69.40
65046;DHT22;54657;52.022;5.534;2023-05-27T03:06:03;10.80;69.70
65046;DHT22;54657;52.022;5.534;2023-05-27T03:08:29;10.80;69.90
65046;DHT22;54657;52.022;5.534;2023-05-27T03:10:54;10.80;70.20
65046;DHT22;54657;52.022;5.534;2023-05-27T03:13:20;10.80;70.20
65046;DHT22;54657;52.022;5.534;2023-05-27T03:15:45;10.80;69.70
65046;DHT22;54657;52.022;5.534;2023-05-27T03:18:11;10.70;70.00
65046;DHT22;54657;52.022;5.534;2023-05-27T03:20:36;10.60;71.00
65046;DHT22;54657;52.022;5.534;2023-05-27T03:23:02;10.40;71.10
65046;DHT22;54657;52.022;5.534;2023-05-27T03:25:28;10.40;71.20
65046;DHT22;54657;52.022;5.534;2023-05-27T03:27:54;10.50;71.70
65046;DHT22;54657;52.022;5.534;2023-05-27T03:30:20;10.40;70.90
65046;DHT22;54657;52.022;5.534;2023-05-27T03:32:45;10.40;70.90
65046;DHT22;54657;52.022;5.534;2023-05-27T03:35:11;10.30;71.10
65046;DHT22;54657;52.022;5.534;2023-05-27T03:37:37;10.30;71.60
65046;DHT22;54657;52.022;5.534;2023-05-27T03:40:03;10.30;71.80
65046;DHT22;54657;52.022;5.534;2023-05-27T03:42:28;10.30;71.50
65046;DHT22;54657;52.022;5.534;2023-05-27T03:44:54;10.30;71.70
65046;DHT22;54657;52.022;5.534;2023-05-27T03:47:19;10.30;71.10
65046;DHT22;54657;52.022;5.534;2023-05-27T03:49:47;10.30;71.90
65046;DHT22;54657;52.022;5.534;2023-05-27T03:52:13;10.30;71.40
65046;DHT22;54657;52.022;5.534;2023-05-27T03:54:38;10.30;72.10
65046;DHT22;54657;52.022;5.534;2023-05-27T03:57:04;10.30;72.00
65046;DHT22;54657;52.022;5.534;2023-05-27T03:59:30;10.20;71.60
65046;DHT22;54657;52.022;5.534;2023-05-27T04:01:55;10.20;71.60
65046;DHT22;54657;52.022;5.534;2023-05-27T04:04:21;10.20;72.20
65046;DHT22;54657;52.022;5.534;2023-05-27T04:06:46;10.20;71.90
65046;DHT22;54657;52.022;5.534;2023-05-27T04:09:12;10.10;71.80
65046;DHT22;54657;52.022;5.534;2023-05-27T04:11:37;10.10;72.20
65046;DHT22;54657;52.022;5.534;2023-05-27T04:14:03;10.10;72.00
65046;DHT22;54657;52.022;5.534;2023-05-27T04:16:32;10.10;73.00
65046;DHT22;54657;52.022;5.534;2023-05-27T04:19:02;10.10;72.80
65046;DHT22;54657;52.022;5.534;2023-05-27T04:21:28;10.10;72.80
65046;DHT22;54657;52.022;5.534;2023-05-27T04:23:53;10.20;72.90
65046;DHT22;54657;52.022;5.534;2023-05-27T04:26:19;10.20;72.20
65046;DHT22;54657;52.022;5.534;2023-05-27T04:28:45;10.30;72.40
65046;DHT22;54657;52.022;5.534;2023-05-27T04:31:12;10.50;72.40
65046;DHT22;54657;52.022;5.534;2023-05-27T04:33:41;10.50;72.10
65046;DHT22;54657;52.022;5.534;2023-05-27T04:36:07;10.70;72.50
65046;DHT22;54657;52.022;5.534;2023-05-27T04:38:33;10.70;71.70
65046;DHT22;54657;52.022;5.534;2023-05-27T04:40:59;10.80;71.50
65046;DHT22;54657;52.022;5.534;2023-05-27T04:43:26;10.80;71.60
65046;DHT22;54657;52.022;5.534;2023-05-27T04:45:52;10.90;71.90
65046;DHT22;54657;52.022;5.534;2023-05-27T04:48:18;11.00;71.40
65046;DHT22;54657;52.022;5.534;2023-05-27T04:50:45;10.80;72.20
65046;DHT22;54657;52.022;5.534;2023-05-27T04:53:11;10.70;72.40
65046;DHT22;54657;52.022;5.534;2023-05-27T04:55:37;10.70;72.70
65046;DHT22;54657;52.022;5.534;2023-05-27T04:58:04;10.60;72.70
65046;DHT22;54657;52.022;5.534;2023-05-27T05:00:30;10.70;73.30
65046;DHT22;54657;52.022;5.534;2023-05-27T05:03:02;10.70;73.20
65046;DHT22;54657;52.022;5.534;2023-05-27T05:05:29;10.70;73.20
65046;DHT22;54657;52.022;5.534;2023-05-27T05:07:54;10.80;73.10
65046;DHT22;54657;52.022;5.534;2023-05-27T05:10:20;10.80;73.00
65046;DHT22;54657;52.022;5.534;2023-05-27T05:12:46;10.90;72.70
65046;DHT22;54657;52.022;5.534;2023-05-27T05:15:12;10.80;73.20
65046;DHT22;54657;52.022;5.534;2023-05-27T05:17:37;10.90;72.80
65046;DHT22;54657;52.022;5.534;2023-05-27T05:20:03;11.00;72.40
65046;DHT22;54657;52.022;5.534;2023-05-27T05:22:30;11.00;72.80
65046;DHT22;54657;52.022;5.534;2023-05-27T05:24:55;11.10;73.30
65046;DHT22;54657;52.022;5.534;2023-05-27T05:27:21;11.20;72.70
65046;DHT22;54657;52.022;5.534;2023-05-27T05:29:46;11.30;72.00
65046;DHT22;54657;52.022;5.534;2023-05-27T05:32:12;11.30;72.30
65046;DHT22;54657;52.022;5.534;2023-05-27T05:34:39;11.40;73.00
65046;DHT22;54657;52.022;5.534;2023-05-27T05:37:04;11.40;73.30
65046;DHT22;54657;52.022;5.534;2023-05-27T05:39:30;11.50;72.50
65046;DHT22;54657;52.022;5.534;2023-05-27T05:41:56;11.50;72.50
65046;DHT22;54657;52.022;5.534;2023-05-27T05:44:23;11.60;72.40
65046;DHT22;54657;52.022;5.534;2023-05-27T05:46:49;11.60;72.80
65046;DHT22;54657;52.022;5.534;2023-05-27T05:49:14;11.60;72.30
65046;DHT22;54657;52.022;5.534;2023-05-27T05:51:40;11.50;72.60
65046;DHT22;54657;52.022;5.534;2023-05-27T05:54:08;11.50;73.00
65046;DHT22;54657;52.022;5.534;2023-05-27T05:56:34;11.50;73.10
65046;DHT22;54657;52.022;5.534;2023-05-27T05:58:59;11.50;72.80
65046;DHT22;54657;52.022;5.534;2023-05-27T06:01:26;11.60;73.60
65046;DHT22;54657;52.022;5.534;2023-05-27T06:03:54;11.60;73.00
65046;DHT22;54657;52.022;5.534;2023-05-27T06:06:21;11.60;73.00
65046;DHT22;54657;52.022;5.534;2023-05-27T06:08:47;11.60;73.40
65046;DHT22;54657;52.022;5.534;2023-05-27T06:11:13;11.70;73.70
65046;DHT22;54657;52.022;5.534;2023-05-27T06:13:38;11.90;72.70
65046;DHT22;54657;52.022;5.534;2023-05-27T06:16:04;12.00;72.80
65046;DHT22;54657;52.022;5.534;2023-05-27T06:18:30;12.00;73.30
65046;DHT22;54657;52.022;5.534;2023-05-27T06:20:55;12.00;73.10
65046;DHT22;54657;52.022;5.534;2023-05-27T06:23:21;12.10;72.90
65046;DHT22;54657;52.022;5.534;2023-05-27T06:25:46;12.20;73.40
65046;DHT22;54657;52.022;5.534;2023-05-27T06:28:12;12.20;72.80
65046;DHT22;54657;52.022;5.534;2023-05-27T06:30:38;12.30;73.10
65046;DHT22;54657;52.022;5.534;2023-05-27T06:33:04;12.40;74.10
65046;DHT22;54657;52.022;5.534;2023-05-27T06:35:30;12.60;73.20
65046;DHT22;54657;52.022;5.534;2023-05-27T06:37:57;12.80;72.70
65046;DHT22;54657;52.022;5.534;2023-05-27T06:40:23;12.90;72.60
65046;DHT22;54657;52.022;5.534;2023-05-27T06:42:52;13.20;72.70
65046;DHT22;54657;52.022;5.534;2023-05-27T06:45:18;13.30;72.00
65046;DHT22;54657;52.022;5.534;2023-05-27T06:47:44;13.40;72.60
65046;DHT22;54657;52.022;5.534;2023-05-27T06:50:09;13.50;71.70
65046;DHT22;54657;52.022;5.534;2023-05-27T06:52:35;13.60;71.60
65046;DHT22;54657;52.022;5.534;2023-05-27T06:55:01;13.70;71.50
65046;DHT22;54657;52.022;5.534;2023-05-27T06:57:26;13.70;71.40
65046;DHT22;54657;52.022;5.534;2023-05-27T06:59:52;13.80;71.60
65046;DHT22;54657;52.022;5.534;2023-05-27T07:02:18;14.10;71.40
65046;DHT22;54657;52.022;5.534;2023-05-27T07:04:43;14.10;71.10
65046;DHT22;54657;52.022;5.534;2023-05-27T07:07:09;14.20;70.80
65046;DHT22;54657;52.022;5.534;2023-05-27T07:09:35;14.30;70.90
65046;DHT22;54657;52.022;5.534;2023-05-27T07:12:01;14.20;70.80
65046;DHT22;54657;52.022;5.534;2023-05-27T07:14:32;14.40;71.30
65046;DHT22;54657;52.022;5.534;2023-05-27T07:16:58;14.50;71.00
65046;DHT22;54657;52.022;5.534;2023-05-27T07:19:23;14.60;70.90
65046;DHT22;54657;52.022;5.534;2023-05-27T07:21:49;14.80;70.70
65046;DHT22;54657;52.022;5.534;2023-05-27T07:24:17;15.00;70.10
65046;DHT22;54657;52.022;5.534;2023-05-27T07:26:43;15.00;69.70
65046;DHT22;54657;52.022;5.534;2023-05-27T07:29:08;14.90;69.60
65046;DHT22;54657;52.022;5.534;2023-05-27T07:31:34;14.90;70.20
65046;DHT22;54657;52.022;5.534;2023-05-27T07:33:59;15.00;70.00
65046;DHT22;54657;52.022;5.534;2023-05-27T07:36:25;15.10;69.60
65046;DHT22;54657;52.022;5.534;2023-05-27T07:38:51;15.30;69.70
65046;DHT22;54657;52.022;5.534;2023-05-27T07:41:16;15.40;69.40
65046;DHT22;54657;52.022;5.534;2023-05-27T07:43:42;15.60;68.90
65046;DHT22;54657;52.022;5.534;2023-05-27T07:46:07;15.70;68.60
65046;DHT22;54657;52.022;5.534;2023-05-27T07:48:33;15.70;68.50
65046;DHT22;54657;52.022;5.534;2023-05-27T07:50:59;15.80;68.60
65046;DHT22;54657;52.022;5.534;2023-05-27T07:53:24;15.90;68.70
65046;DHT22;54657;52.022;5.534;2023-05-27T07:55:50;16.10;68.40
65046;DHT22;54657;52.022;5.534;2023-05-27T07:58:15;16.30;68.00
65046;DHT22;54657;52.022;5.534;2023-05-27T08:00:41;16.30;68.20
65046;DHT22;54657;52.022;5.534;2023-05-27T08:03:07;16.50;67.80
65046;DHT22;54657;52.022;5.534;2023-05-27T08:05:32;16.50;67.80
65046;DHT22;54657;52.022;5.534;2023-05-27T08:07:58;16.50;67.50
65046;DHT22;54657;52.022;5.534;2023-05-27T08:10:25;16.50;67.70
65046;DHT22;54657;52.022;5.534;2023-05-27T08:12:51;16.40;67.60
65046;DHT22;54657;52.022;5.534;2023-05-27T08:15:16;16.40;67.80
65046;DHT22;54657;52.022;5.534;2023-05-27T08:17:42;16.40;67.70
65046;DHT22;54657;52.022;5.534;2023-05-27T08:20:10;16.40;67.90
65046;DHT22;54657;52.022;5.534;2023-05-27T08:22:36;16.50;68.40
65046;DHT22;54657;52.022;5.534;2023-05-27T08:25:02;16.50;67.70
65046;DHT22;54657;52.022;5.534;2023-05-27T08:27:51;16.60;67.50
65046;DHT22;54657;52.022;5.534;2023-05-27T08:30:17;16.50;66.90
65046;DHT22;54657;52.022;5.534;2023-05-27T08:32:44;16.70;67.30
65046;DHT22;54657;52.022;5.534;2023-05-27T08:35:10;16.80;66.90
65046;DHT22;54657;52.022;5.534;2023-05-27T08:37:37;16.90;66.90
65046;DHT22;54657;52.022;5.534;2023-05-27T08:40:03;17.10;66.80
65046;DHT22;54657;52.022;5.534;2023-05-27T08:42:33;17.30;66.30
65046;DHT22;54657;52.022;5.534;2023-05-27T08:44:59;17.30;66.10
65046;DHT22;54657;52.022;5.534;2023-05-27T08:47:28;17.40;66.10
65046;DHT22;54657;52.022;5.534;2023-05-27T08:49:56;17.50;65.90
65046;DHT22;54657;52.022;5.534;2023-05-27T08:52:27;17.50;65.80
65046;DHT22;54657;52.022;5.534;2023-05-27T08:54:57;17.60;65.90
65046;DHT22;54657;52.022;5.534;2023-05-27T08:57:29;17.70;65.60
65046;DHT22;54657;52.022;5.534;2023-05-27T08:59:56;17.70;64.80
65046;DHT22;54657;52.022;5.534;2023-05-27T09:02:22;17.50;65.30
65046;DHT22;54657;52.022;5.534;2023-05-27T09:04:49;17.60;65.70
65046;DHT22;54657;52.022;5.534;2023-05-27T09:07:15;17.80;65.40
65046;DHT22;54657;52.022;5.534;2023-05-27T09:09:42;18.00;65.20
65046;DHT22;54657;52.022;5.534;2023-05-27T09:12:08;17.90;64.90
65046;DHT22;54657;52.022;5.534;2023-05-27T09:14:34;17.90;64.80
65046;DHT22;54657;52.022;5.534;2023-05-27T09:17:07;17.90;64.60
65046;DHT22;54657;52.022;5.534;2023-05-27T09:19:33;18.00;65.00
65046;DHT22;54657;52.022;5.534;2023-05-27T09:21:59;18.00;64.70
65046;DHT22;54657;52.022;5.534;2023-05-27T09:24:25;18.10;64.60
65046;DHT22;54657;52.022;5.534;2023-05-27T09:26:52;18.10;64.50
65046;DHT22;54657;52.022;5.534;2023-05-27T09:29:26;18.20;64.30
65046;DHT22;54657;52.022;5.534;2023-05-27T09:31:55;18.30;63.60
65046;DHT22;54657;52.022;5.534;2023-05-27T09:34:21;18.40;64.10
65046;DHT22;54657;52.022;5.534;2023-05-27T09:36:49;18.40;63.90
65046;DHT22;54657;52.022;5.534;2023-05-27T09:39:18;18.60;63.60
65046;DHT22;54657;52.022;5.534;2023-05-27T09:41:50;18.70;63.70
65046;DHT22;54657;52.022;5.534;2023-05-27T09:44:16;18.70;62.70
65046;DHT22;54657;52.022;5.534;2023-05-27T09:46:44;18.70;63.10
65046;DHT22;54657;52.022;5.534;2023-05-27T09:49:12;18.80;62.90
65046;DHT22;54657;52.022;5.534;2023-05-27T09:51:40;18.80;62.80
65046;DHT22;54657;52.022;5.534;2023-05-27T09:54:06;18.90;62.80
65046;DHT22;54657;52.022;5.534;2023-05-27T09:56:33;19.00;62.50
65046;DHT22;54657;52.022;5.534;2023-05-27T09:59:00;19.00;62.20
65046;DHT22;54657;52.022;5.534;2023-05-27T10:01:27;19.00;62.50
65046;DHT22;54657;52.022;5.534;2023-05-27T10:03:57;19.10;62.30
65046;DHT22;54657;52.022;5.534;2023-05-27T10:06:23;19.20;62.30
65046;DHT22;54657;52.022;5.534;2023-05-27T10:08:50;19.20;62.20
65046;DHT22;54657;52.022;5.534;2023-05-27T10:11:18;19.30;61.90
65046;DHT22;54657;52.022;5.534;2023-05-27T10:13:44;19.30;61.50
65046;DHT22;54657;52.022;5.534;2023-05-27T10:16:22;19.30;61.50
65046;DHT22;54657;52.022;5.534;2023-05-27T10:18:52;19.40;60.80
65046;DHT22;54657;52.022;5.534;2023-05-27T10:21:23;19.50;60.80
65046;DHT22;54657;52.022;5.534;2023-05-27T10:23:58;19.50;60.10
65046;DHT22;54657;52.022;5.534;2023-05-27T10:26:33;19.60;60.00
65046;DHT22;54657;52.022;5.534;2023-05-27T10:29:06;19.50;59.30
65046;DHT22;54657;52.022;5.534;2023-05-27T10:31:33;19.60;60.50
65046;DHT22;54657;52.022;5.534;2023-05-27T10:33:59;19.70;61.10
65046;DHT22;54657;52.022;5.534;2023-05-27T10:36:26;19.70;60.50
65046;DHT22;54657;52.022;5.534;2023-05-27T10:38:55;19.80;60.60
65046;DHT22;54657;52.022;5.534;2023-05-27T10:41:21;20.00;60.40
65046;DHT22;54657;52.022;5.534;2023-05-27T10:43:58;20.10;60.10
65046;DHT22;54657;52.022;5.534;2023-05-27T10:46:24;20.20;59.20
65046;DHT22;54657;52.022;5.534;2023-05-27T10:48:50;20.10;59.20
65046;DHT22;54657;52.022;5.534;2023-05-27T10:51:16;20.00;59.30
65046;DHT22;54657;52.022;5.534;2023-05-27T10:53:41;20.00;59.60
65046;DHT22;54657;52.022;5.534;2023-05-27T10:56:07;20.10;59.60
65046;DHT22;54657;52.022;5.534;2023-05-27T10:58:35;20.20;59.40
65046;DHT22;54657;52.022;5.534;2023-05-27T11:01:07;20.30;59.10
65046;DHT22;54657;52.022;5.534;2023-05-27T11:03:33;20.40;58.70
65046;DHT22;54657;52.022;5.534;2023-05-27T11:08:31;20.20;59.80
65046;DHT22;54657;52.022;5.534;2023-05-27T11:11:02;20.30;59.80
65046;DHT22;54657;52.022;5.534;2023-05-27T11:13:34;20.50;58.70
65046;DHT22;54657;52.022;5.534;2023-05-27T11:16:02;20.60;56.20
65046;DHT22;54657;52.022;5.534;2023-05-27T11:18:42;20.70;58.30
65046;DHT22;54657;52.022;5.534;2023-05-27T11:21:09;21.00;57.20
65046;DHT22;54657;52.022;5.534;2023-05-27T11:23:38;21.00;57.50
65046;DHT22;54657;52.022;5.534;2023-05-27T11:26:19;21.00;57.00
65046;DHT22;54657;52.022;5.534;2023-05-27T11:28:52;21.00;56.60
65046;DHT22;54657;52.022;5.534;2023-05-27T11:31:30;21.10;54.10
65046;DHT22;54657;52.022;5.534;2023-05-27T11:33:56;21.00;55.90
65046;DHT22;54657;52.022;5.534;2023-05-27T11:36:26;21.20;56.90
65046;DHT22;54657;52.022;5.534;2023-05-27T11:38:59;21.40;55.80
65046;DHT22;54657;52.022;5.534;2023-05-27T11:41:27;21.40;55.00
65046;DHT22;54657;52.022;5.534;2023-05-27T11:44:01;21.50;55.60
65046;DHT22;54657;52.022;5.534;2023-05-27T11:46:37;21.50;54.80
65046;DHT22;54657;52.022;5.534;2023-05-27T11:49:07;21.40;53.60
65046;DHT22;54657;52.022;5.534;2023-05-27T11:51:34;21.30;55.50
65046;DHT22;54657;52.022;5.534;2023-05-27T11:54:02;21.40;55.70
65046;DHT22;54657;52.022;5.534;2023-05-27T11:56:28;21.60;55.00
65046;DHT22;54657;52.022;5.534;2023-05-27T11:58:54;21.70;54.90
65046;DHT22;54657;52.022;5.534;2023-05-27T12:01:20;21.90;54.80
65046;DHT22;54657;52.022;5.534;2023-05-27T12:03:46;22.00;54.60
65046;DHT22;54657;52.022;5.534;2023-05-27T12:06:11;22.10;54.50
65046;DHT22;54657;52.022;5.534;2023-05-27T12:08:37;22.00;53.50
65046;DHT22;54657;52.022;5.534;2023-05-27T12:11:04;21.90;53.50
65046;DHT22;54657;52.022;5.534;2023-05-27T12:13:30;21.90;53.50
65046;DHT22;54657;52.022;5.534;2023-05-27T12:15:57;21.90;53.90
65046;DHT22;54657;52.022;5.534;2023-05-27T12:18:23;21.90;53.50
65046;DHT22;54657;52.022;5.534;2023-05-27T12:20:49;22.00;53.50
65046;DHT22;54657;52.022;5.534;2023-05-27T12:23:14;22.00;54.00
65046;DHT22;54657;52.022;5.534;2023-05-27T12:25:40;22.00;53.70
65046;DHT22;54657;52.022;5.534;2023-05-27T12:28:07;22.20;53.10
65046;DHT22;54657;52.022;5.534;2023-05-27T12:30:33;22.40;53.00
65046;DHT22;54657;52.022;5.534;2023-05-27T12:33:00;22.50;52.60
65046;DHT22;54657;52.022;5.534;2023-05-27T12:35:26;22.60;52.60
65046;DHT22;54657;52.022;5.534;2023-05-27T12:37:51;22.50;52.50
65046;DHT22;54657;52.022;5.534;2023-05-27T12:40:17;22.50;51.60
65046;DHT22;54657;52.022;5.534;2023-05-27T12:42:43;22.60;51.70
65046;DHT22;54657;52.022;5.534;2023-05-27T12:45:09;22.60;52.00
65046;DHT22;54657;52.022;5.534;2023-05-27T12:47:36;22.60;51.80
65046;DHT22;54657;52.022;5.534;2023-05-27T12:50:01;22.70;51.60
65046;DHT22;54657;52.022;5.534;2023-05-27T12:52:27;22.70;51.50
65046;DHT22;54657;52.022;5.534;2023-05-27T12:54:53;22.60;51.20
65046;DHT22;54657;52.022;5.534;2023-05-27T12:57:19;22.70;51.50
65046;DHT22;54657;52.022;5.534;2023-05-27T12:59:45;22.70;51.50
65046;DHT22;54657;52.022;5.534;2023-05-27T13:02:11;22.80;50.60
65046;DHT22;54657;52.022;5.534;2023-05-27T13:04:36;22.80;50.50
65046;DHT22;54657;52.022;5.534;2023-05-27T13:07:02;22.90;50.10
65046;DHT22;54657;52.022;5.534;2023-05-27T13:09:27;23.00;50.30
65046;DHT22;54657;52.022;5.534;2023-05-27T13:11:53;23.10;50.20
65046;DHT22;54657;52.022;5.534;2023-05-27T13:14:19;23.10;50.40
65046;DHT22;54657;52.022;5.534;2023-05-27T13:16:44;23.00;50.20
65046;DHT22;54657;52.022;5.534;2023-05-27T13:19:10;22.70;51.00
65046;DHT22;54657;52.022;5.534;2023-05-27T13:21:35;22.60;50.00
65046;DHT22;54657;52.022;5.534;2023-05-27T13:24:01;22.70;50.40
65046;DHT22;54657;52.022;5.534;2023-05-27T13:26:27;22.80;50.20
65046;DHT22;54657;52.022;5.534;2023-05-27T13:28:53;22.80;49.50
65046;DHT22;54657;52.022;5.534;2023-05-27T13:31:20;22.80;49.90
65046;DHT22;54657;52.022;5.534;2023-05-27T13:33:45;22.90;49.50
65046;DHT22;54657;52.022;5.534;2023-05-27T13:36:11;23.00;49.20
65046;DHT22;54657;52.022;5.534;2023-05-27T13:38:37;23.00;49.40
65046;DHT22;54657;52.022;5.534;2023-05-27T13:41:03;23.00;49.30
65046;DHT22;54657;52.022;5.534;2023-05-27T13:43:28;23.20;50.40
65046;DHT22;54657;52.022;5.534;2023-05-27T13:45:54;23.40;50.90
65046;DHT22;54657;52.022;5.534;2023-05-27T13:48:20;23.10;51.00
65046;DHT22;54657;52.022;5.534;2023-05-27T13:50:45;22.90;50.90
65046;DHT22;54657;52.022;5.534;2023-05-27T13:53:11;23.00;50.50
65046;DHT22;54657;52.022;5.534;2023-05-27T13:55:36;22.80;50.60
65046;DHT22;54657;52.022;5.534;2023-05-27T13:58:02;22.80;50.50
65046;DHT22;54657;52.022;5.534;2023-05-27T14:00:27;22.90;50.10
65046;DHT22;54657;52.022;5.534;2023-05-27T14:02:54;23.10;49.20
65046;DHT22;54657;52.022;5.534;2023-05-27T14:05:20;23.20;48.10
65046;DHT22;54657;52.022;5.534;2023-05-27T14:07:46;23.00;48.10
65046;DHT22;54657;52.022;5.534;2023-05-27T14:10:12;23.00;47.90
65046;DHT22;54657;52.022;5.534;2023-05-27T14:12:38;22.90;48.00
65046;DHT22;54657;52.022;5.534;2023-05-27T14:15:04;22.90;48.20
65046;DHT22;54657;52.022;5.534;2023-05-27T14:17:30;23.00;48.30
65046;DHT22;54657;52.022;5.534;2023-05-27T14:19:56;23.00;47.80
65046;DHT22;54657;52.022;5.534;2023-05-27T14:22:22;23.10;47.90
65046;DHT22;54657;52.022;5.534;2023-05-27T14:24:48;23.20;48.00
65046;DHT22;54657;52.022;5.534;2023-05-27T14:27:13;23.30;48.00
65046;DHT22;54657;52.022;5.534;2023-05-27T14:29:39;23.30;47.70
65046;DHT22;54657;52.022;5.534;2023-05-27T14:32:06;23.20;47.90
65046;DHT22;54657;52.022;5.534;2023-05-27T14:34:32;23.10;48.10
65046;DHT22;54657;52.022;5.534;2023-05-27T14:36:57;23.00;48.30
65046;DHT22;54657;52.022;5.534;2023-05-27T14:39:23;23.00;48.10
65046;DHT22;54657;52.022;5.534;2023-05-27T14:41:49;23.00;47.80
65046;DHT22;54657;52.022;5.534;2023-05-27T14:44:15;22.80;48.20
65046;DHT22;54657;52.022;5.534;2023-05-27T14:46:40;22.90;48.10
65046;DHT22;54657;52.022;5.534;2023-05-27T14:49:06;23.00;48.10
65046;DHT22;54657;52.022;5.534;2023-05-27T14:51:32;23.10;47.90
65046;DHT22;54657;52.022;5.534;2023-05-27T14:53:57;23.20;48.10
65046;DHT22;54657;52.022;5.534;2023-05-27T14:56:23;23.30;48.00
65046;DHT22;54657;52.022;5.534;2023-05-27T14:58:48;23.20;47.80
65046;DHT22;54657;52.022;5.534;2023-05-27T15:01:14;23.20;47.70
65046;DHT22;54657;52.022;5.534;2023-05-27T15:03:40;23.30;47.70
65046;DHT22;54657;52.022;5.534;2023-05-27T15:06:06;23.40;47.40
65046;DHT22;54657;52.022;5.534;2023-05-27T15:08:34;23.30;47.20
65046;DHT22;54657;52.022;5.534;2023-05-27T15:11:01;23.20;47.30
65046;DHT22;54657;52.022;5.534;2023-05-27T15:13:26;23.20;47.30
65046;DHT22;54657;52.022;5.534;2023-05-27T15:15:52;23.20;47.50
65046;DHT22;54657;52.022;5.534;2023-05-27T15:18:18;23.20;47.20
65046;DHT22;54657;52.022;5.534;2023-05-27T15:20:43;23.20;47.20
65046;DHT22;54657;52.022;5.534;2023-05-27T15:23:09;23.20;47.50
65046;DHT22;54657;52.022;5.534;2023-05-27T15:25:35;23.20;47.00
65046;DHT22;54657;52.022;5.534;2023-05-27T15:28:01;23.20;47.10
65046;DHT22;54657;52.022;5.534;2023-05-27T15:30:27;23.20;47.00
65046;DHT22;54657;52.022;5.534;2023-05-27T15:32:53;23.20;47.20
65046;DHT22;54657;52.022;5.534;2023-05-27T15:35:18;23.10;47.00